createdAt,value
2018-11-03T00:00:15.511Z,79.16
2018-11-03T00:02:43.147Z,78.71
2018-11-03T00:05:10.099Z,78.36
2018-11-03T00:07:37.066Z,78.38
2018-11-03T00:10:05.054Z,78.07
2018-11-03T00:12:31.954Z,77.86
2018-11-03T00:14:58.899Z,78.65
2018-11-03T00:17:25.854Z,78.47
2018-11-03T00:19:53.811Z,78.17
2018-11-03T00:22:20.770Z,77.78
2018-11-03T00:24:47.696Z,78.42
2018-11-03T00:27:14.651Z,78.57
2018-11-03T00:29:41.603Z,77.87
2018-11-03T00:32:08.546Z,77.80
2018-11-03T00:34:35.488Z,78.16
2018-11-03T00:37:02.422Z,78.62
2018-11-03T00:39:29.382Z,78.23
2018-11-03T00:41:56.319Z,78.14
2018-11-03T00:44:23.258Z,78.15
2018-11-03T00:46:50.203Z,77.37
2018-11-03T00:49:17.142Z,78.25
2018-11-03T00:51:43.987Z,77.92
2018-11-03T00:54:10.987Z,78.44
2018-11-03T00:56:37.879Z,77.29
2018-11-03T00:59:04.834Z,78.17
2018-11-03T01:01:31.773Z,77.79
2018-11-03T01:03:58.674Z,78.24
2018-11-03T01:06:25.627Z,77.87
2018-11-03T01:08:52.559Z,77.59
2018-11-03T01:11:19.499Z,78.39
2018-11-03T01:13:46.411Z,79.46
2018-11-03T01:16:13.393Z,79.56
2018-11-03T01:18:40.335Z,79.03
2018-11-03T01:21:07.300Z,78.23
2018-11-03T01:23:35.199Z,78.25
2018-11-03T01:26:02.026Z,78.22
2018-11-03T01:28:28.931Z,77.50
2018-11-03T01:30:55.879Z,76.98
2018-11-03T01:33:22.803Z,77.59
2018-11-03T01:35:50.709Z,78.22
2018-11-03T01:38:17.644Z,79.15
2018-11-03T01:40:44.583Z,79.44
2018-11-03T01:43:11.573Z,79.73
2018-11-03T01:45:38.517Z,79.25
2018-11-03T01:48:05.414Z,80.06
2018-11-03T01:50:33.401Z,80.10
2018-11-03T01:53:00.329Z,80.93
2018-11-03T01:55:27.214Z,81.34
2018-11-03T01:57:54.083Z,81.60
2018-11-03T02:00:20.944Z,80.97
2018-11-03T02:02:47.903Z,80.88
2018-11-03T02:05:14.883Z,80.05
2018-11-03T02:07:41.783Z,79.20
2018-11-03T02:10:09.331Z,79.25
2018-11-03T02:12:36.290Z,79.24
2018-11-03T02:15:03.239Z,79.75
2018-11-03T02:17:30.195Z,78.20
2018-11-03T02:19:57.135Z,78.33
2018-11-03T02:22:24.079Z,78.73
2018-11-03T02:24:51.015Z,78.00
2018-11-03T02:27:17.919Z,79.46
2018-11-03T02:29:44.811Z,80.18
2018-11-03T02:32:11.752Z,80.06
2018-11-03T02:34:38.738Z,79.57
2018-11-03T02:37:05.654Z,78.75
2018-11-03T02:39:32.612Z,79.38
2018-11-03T02:41:59.559Z,78.20
2018-11-03T02:44:26.495Z,78.16
2018-11-03T02:46:53.444Z,77.52
2018-11-03T02:49:20.383Z,77.76
2018-11-03T02:51:47.323Z,77.11
2018-11-03T02:54:14.259Z,77.63
2018-11-03T02:56:41.211Z,77.09
2018-11-03T02:59:11.575Z,75.85
2018-11-03T03:01:38.464Z,75.53
2018-11-03T03:04:05.439Z,75.72
2018-11-03T03:06:32.367Z,75.78
2018-11-03T03:08:59.267Z,75.88
2018-11-03T03:11:26.143Z,76.66
2018-11-03T03:13:53.101Z,76.84
2018-11-03T03:16:20.067Z,75.69
2018-11-03T03:18:46.981Z,75.59
2018-11-03T03:21:14.953Z,75.33
2018-11-03T03:23:42.912Z,75.88
2018-11-03T03:26:10.891Z,75.85
2018-11-03T03:28:37.833Z,75.58
2018-11-03T03:31:04.776Z,75.42
2018-11-03T03:33:31.726Z,74.94
2018-11-03T03:35:58.668Z,75.39
2018-11-03T03:38:25.696Z,75.77
2018-11-03T03:40:52.656Z,75.31
2018-11-03T03:43:19.570Z,74.83
2018-11-03T03:45:46.567Z,75.16
2018-11-03T03:48:13.615Z,74.81
2018-11-03T03:50:40.534Z,75.67
2018-11-03T03:53:07.480Z,75.02
2018-11-03T03:55:34.350Z,75.59
2018-11-03T03:58:01.264Z,76.39
2018-11-03T04:00:28.218Z,76.57
2018-11-03T04:02:56.082Z,76.28
2018-11-03T04:05:23.940Z,76.19
2018-11-03T04:07:50.891Z,76.16
2018-11-03T04:10:17.838Z,76.71
2018-11-03T04:12:44.783Z,76.74
2018-11-03T04:15:11.728Z,76.95
2018-11-03T04:17:38.675Z,77.16
2018-11-03T04:20:09.324Z,76.77
2018-11-03T04:22:36.251Z,76.17
2018-11-03T04:25:03.219Z,76.34
2018-11-03T04:27:30.135Z,76.50
2018-11-03T04:29:57.163Z,76.05
2018-11-03T04:32:24.122Z,76.61
2018-11-03T04:34:51.081Z,76.78
2018-11-03T04:37:17.953Z,77.22
2018-11-03T04:39:44.856Z,77.84
2018-11-03T04:42:11.815Z,77.49
2018-11-03T04:44:38.833Z,78.36
2018-11-03T04:47:05.715Z,78.16
2018-11-03T04:49:32.666Z,78.41
2018-11-03T04:52:00.606Z,79.82
2018-11-03T04:54:27.483Z,79.45
2018-11-03T04:56:54.394Z,79.22
2018-11-03T04:59:21.375Z,79.84
2018-11-03T05:01:48.286Z,80.11
2018-11-03T05:04:15.239Z,80.12
2018-11-03T05:06:43.098Z,80.03
2018-11-03T05:09:10.391Z,79.79
2018-11-03T05:11:38.442Z,80.26
2018-11-03T05:14:05.848Z,81.10
2018-11-03T05:16:32.827Z,80.14
2018-11-03T05:18:59.755Z,80.61
2018-11-03T05:21:29.741Z,81.02
2018-11-03T05:23:57.666Z,80.45
2018-11-03T05:26:24.535Z,80.62
2018-11-03T05:28:52.464Z,81.03
2018-11-03T05:31:19.468Z,81.57
2018-11-03T05:33:46.348Z,81.16
2018-11-03T05:36:14.323Z,81.30
2018-11-03T05:38:41.287Z,81.53
2018-11-03T05:41:08.212Z,82.36
2018-11-03T05:43:35.155Z,82.32
2018-11-03T05:46:02.087Z,82.43
2018-11-03T05:48:29.050Z,81.60
2018-11-03T05:50:55.998Z,81.86
2018-11-03T05:53:22.934Z,82.10
2018-11-03T05:55:49.908Z,82.35
2018-11-03T05:58:16.820Z,82.24
2018-11-03T06:00:43.767Z,81.97
2018-11-03T06:03:10.711Z,82.11
2018-11-03T06:05:37.588Z,82.15
2018-11-03T06:08:04.842Z,81.67
2018-11-03T06:10:31.805Z,81.44
2018-11-03T06:12:58.666Z,81.92
2018-11-03T06:15:25.571Z,81.47
2018-11-03T06:17:52.485Z,82.02
2018-11-03T06:20:19.425Z,81.56
2018-11-03T06:22:46.388Z,82.20
2018-11-03T06:25:13.403Z,82.48
2018-11-03T06:27:40.363Z,81.52
2018-11-03T06:30:08.148Z,81.92
2018-11-03T06:32:35.243Z,81.47
2018-11-03T06:35:02.520Z,82.18
2018-11-03T06:37:29.276Z,82.06
2018-11-03T06:39:56.220Z,82.11
2018-11-03T06:42:23.163Z,81.40
2018-11-03T06:44:51.136Z,82.00
2018-11-03T06:47:18.163Z,82.52
2018-11-03T06:49:45.027Z,81.72
2018-11-03T06:52:12.076Z,82.14
2018-11-03T06:54:38.907Z,81.57
2018-11-03T06:57:06.731Z,82.02
2018-11-03T06:59:33.632Z,82.01
2018-11-03T07:02:00.698Z,81.50
2018-11-03T07:04:27.634Z,81.51
2018-11-03T07:06:54.578Z,81.74
2018-11-03T07:09:21.517Z,81.27
2018-11-03T07:11:48.453Z,80.79
2018-11-03T07:14:15.380Z,80.76
2018-11-03T07:16:42.326Z,79.73
2018-11-03T07:19:09.266Z,80.16
2018-11-03T07:21:37.323Z,79.65
2018-11-03T07:24:04.246Z,79.78
2018-11-03T07:26:31.135Z,78.17
2018-11-03T07:28:58.084Z,79.05
2018-11-03T07:31:25.016Z,78.22
2018-11-03T07:33:51.982Z,78.23
2018-11-03T07:36:18.917Z,78.84
2018-11-03T07:38:45.857Z,78.11
2018-11-03T07:41:12.800Z,78.91
2018-11-03T07:43:39.748Z,78.37
2018-11-03T07:46:06.707Z,78.61
2018-11-03T07:48:33.647Z,77.85
2018-11-03T07:51:00.939Z,77.47
2018-11-03T07:53:27.870Z,77.41
2018-11-03T07:55:55.823Z,78.19
2018-11-03T07:58:22.778Z,76.84
2018-11-03T08:00:49.712Z,77.76
2018-11-03T08:03:16.644Z,78.41
2018-11-03T08:05:43.571Z,78.09
2018-11-03T08:08:10.530Z,76.75
2018-11-03T08:10:37.465Z,76.29
2018-11-03T08:13:05.172Z,75.92
2018-11-03T08:15:32.136Z,76.99
2018-11-03T08:17:59.028Z,76.31
2018-11-03T08:20:25.963Z,76.36
2018-11-03T08:22:52.903Z,76.04
2018-11-03T08:25:19.859Z,75.62
2018-11-03T08:27:46.844Z,75.33
2018-11-03T08:30:14.108Z,75.88
2018-11-03T08:32:41.587Z,75.04
2018-11-03T08:35:09.559Z,75.76
2018-11-03T08:37:36.541Z,74.38
2018-11-03T08:40:04.831Z,74.92
2018-11-03T08:42:31.743Z,74.84
2018-11-03T08:44:58.760Z,75.20
2018-11-03T08:47:25.760Z,74.32
2018-11-03T08:49:52.687Z,74.20
2018-11-03T08:52:19.619Z,74.64
2018-11-03T08:54:46.603Z,74.15
2018-11-03T08:57:13.515Z,73.47
2018-11-03T08:59:40.573Z,73.23
2018-11-03T09:02:07.455Z,73.40
2018-11-03T09:04:34.366Z,72.77
2018-11-03T09:07:01.374Z,72.30
2018-11-03T09:09:28.263Z,71.65
2018-11-03T09:11:55.205Z,71.18
2018-11-03T09:14:22.177Z,72.50
2018-11-03T09:16:49.075Z,73.36
2018-11-03T09:19:16.146Z,70.91
2018-11-03T09:21:43.041Z,71.20
2018-11-03T09:24:09.942Z,71.73
2018-11-03T09:26:36.920Z,72.14
2018-11-03T09:29:03.931Z,70.30
2018-11-03T09:31:30.845Z,70.92
2018-11-03T09:33:57.788Z,70.28
2018-11-03T09:36:25.275Z,70.10
2018-11-03T09:38:52.303Z,70.98
2018-11-03T09:41:19.340Z,70.01
2018-11-03T09:43:46.303Z,71.54
2018-11-03T09:46:13.230Z,70.40
2018-11-03T09:48:40.389Z,70.16
2018-11-03T09:51:07.432Z,69.93
2018-11-03T09:53:34.275Z,70.16
2018-11-03T09:56:01.224Z,69.24
2018-11-03T09:58:28.195Z,68.53
2018-11-03T10:00:55.384Z,68.91
2018-11-03T10:03:22.247Z,68.86
2018-11-03T10:05:49.186Z,68.60
2018-11-03T10:08:16.239Z,69.12
2018-11-03T10:10:43.224Z,69.21
2018-11-03T10:13:10.150Z,68.52
2018-11-03T10:15:37.109Z,68.92
2018-11-03T10:18:04.190Z,67.13
2018-11-03T10:20:31.083Z,68.64
2018-11-03T10:22:58.158Z,68.71
2018-11-03T10:25:24.971Z,69.18
2018-11-03T10:27:51.943Z,68.43
2018-11-03T10:30:18.857Z,68.63
2018-11-03T10:32:46.339Z,69.26
2018-11-03T10:35:13.664Z,67.70
2018-11-03T10:37:40.900Z,67.00
2018-11-03T10:40:09.937Z,65.69
2018-11-03T10:42:37.874Z,66.41
2018-11-03T10:45:06.503Z,66.36
2018-11-03T10:47:33.411Z,66.95
2018-11-03T10:50:00.338Z,67.37
2018-11-03T10:52:27.287Z,67.60
2018-11-03T10:54:54.247Z,67.43
2018-11-03T10:57:21.171Z,68.27
2018-11-03T10:59:48.490Z,68.15
2018-11-03T11:02:21.287Z,67.31
2018-11-03T11:04:53.887Z,67.02
2018-11-03T11:07:30.292Z,67.70
2018-11-03T11:10:02.998Z,68.88
2018-11-03T11:12:35.503Z,66.81
2018-11-03T11:15:02.458Z,66.91
2018-11-03T11:17:29.416Z,66.73
2018-11-03T11:19:56.347Z,67.17
2018-11-03T11:22:23.291Z,65.76
2018-11-03T11:24:50.334Z,67.47
2018-11-03T11:27:17.203Z,67.24
2018-11-03T11:29:44.128Z,67.89
2018-11-03T11:32:11.068Z,66.74
2018-11-03T11:34:38.208Z,67.77
2018-11-03T11:37:05.188Z,67.79
2018-11-03T11:39:32.108Z,68.22
2018-11-03T11:41:59.083Z,67.01
2018-11-03T11:44:26.013Z,67.05
2018-11-03T11:46:52.943Z,67.03
2018-11-03T11:49:19.911Z,66.80
2018-11-03T11:51:46.826Z,66.99
2018-11-03T11:54:13.783Z,67.75
2018-11-03T11:56:40.775Z,67.41
2018-11-03T11:59:07.659Z,67.82
2018-11-03T12:01:34.619Z,66.27
2018-11-03T12:04:01.551Z,67.43
2018-11-03T12:06:28.532Z,67.63
2018-11-03T12:08:55.461Z,65.45
2018-11-03T12:11:22.400Z,67.79
2018-11-03T12:13:49.331Z,66.26
2018-11-03T12:16:16.443Z,66.60
2018-11-03T12:18:43.335Z,66.04
2018-11-03T12:21:10.284Z,67.13
2018-11-03T12:23:37.310Z,67.44
2018-11-03T12:26:04.723Z,66.86
2018-11-03T12:28:31.618Z,68.48
2018-11-03T12:30:58.592Z,67.84
2018-11-03T12:33:25.577Z,66.49
2018-11-03T12:35:53.497Z,66.44
2018-11-03T12:38:21.232Z,67.25
2018-11-03T12:40:48.318Z,66.65
2018-11-03T12:43:15.140Z,67.20
2018-11-03T12:45:42.072Z,67.07
2018-11-03T12:48:09.089Z,65.91
2018-11-03T12:50:37.055Z,66.99
2018-11-03T12:53:03.957Z,66.51
2018-11-03T12:55:30.878Z,66.61
2018-11-03T12:57:57.826Z,66.00
2018-11-03T13:00:24.859Z,66.34
2018-11-03T13:02:51.727Z,67.13
2018-11-03T13:05:18.766Z,67.12
2018-11-03T13:07:45.778Z,67.51
2018-11-03T13:10:12.784Z,65.81
2018-11-03T13:12:40.407Z,67.16
2018-11-03T13:15:09.499Z,66.64
2018-11-03T13:17:36.792Z,66.56
2018-11-03T13:20:04.975Z,66.92
2018-11-03T13:22:31.897Z,67.49
2018-11-03T13:24:58.821Z,65.76
2018-11-03T13:27:25.790Z,66.49
2018-11-03T13:29:53.507Z,65.99
2018-11-03T13:32:20.386Z,66.93
2018-11-03T13:34:47.310Z,66.37
2018-11-03T13:37:14.266Z,66.35
2018-11-03T13:39:41.202Z,66.24
2018-11-03T13:42:08.154Z,66.39
2018-11-03T13:44:35.140Z,67.14
2018-11-03T13:47:02.100Z,66.63
2018-11-03T13:49:28.991Z,66.26
2018-11-03T13:51:55.940Z,65.93
2018-11-03T13:54:22.954Z,66.09
2018-11-03T13:56:49.879Z,66.84
2018-11-03T13:59:16.847Z,66.43
2018-11-03T14:01:43.850Z,65.59
2018-11-03T14:04:10.783Z,65.72
2018-11-03T14:06:37.699Z,66.14
2018-11-03T14:09:05.938Z,66.68
2018-11-03T14:11:32.819Z,65.96
2018-11-03T14:13:59.775Z,66.27
2018-11-03T14:16:26.739Z,66.80
2018-11-03T14:18:55.604Z,66.54
2018-11-03T14:21:22.558Z,67.08
2018-11-03T14:23:49.481Z,66.27
2018-11-03T14:26:16.495Z,66.40
2018-11-03T14:28:48.462Z,66.70
2018-11-03T14:31:15.350Z,66.30
2018-11-03T14:33:42.301Z,66.00
2018-11-03T14:36:09.351Z,65.24
2018-11-03T14:38:36.275Z,66.24
2018-11-03T14:41:03.583Z,67.61
2018-11-03T14:43:30.475Z,66.97
2018-11-03T14:45:57.415Z,65.51
2018-11-03T14:48:24.351Z,66.37
2018-11-03T14:50:51.346Z,65.83
2018-11-03T14:53:18.333Z,66.53
2018-11-03T14:55:45.237Z,66.70
2018-11-03T14:58:12.131Z,65.98
2018-11-03T15:00:39.094Z,66.92
2018-11-03T15:03:06.639Z,65.68
2018-11-03T15:05:33.579Z,66.22
2018-11-03T15:08:00.527Z,65.99
2018-11-03T15:10:27.487Z,67.48
2018-11-03T15:12:54.467Z,66.95
2018-11-03T15:15:21.368Z,66.88
2018-11-03T15:17:48.318Z,65.64
2018-11-03T15:20:15.262Z,67.36
2018-11-03T15:22:43.115Z,66.91
2018-11-03T15:25:11.175Z,67.45
2018-11-03T15:27:38.387Z,68.14
2018-11-03T15:30:06.979Z,67.41
2018-11-03T15:32:33.890Z,67.32
2018-11-03T15:35:01.080Z,68.01
2018-11-03T15:37:27.862Z,68.16
2018-11-03T15:39:54.815Z,68.38
2018-11-03T15:42:21.988Z,68.33
2018-11-03T15:44:48.915Z,68.85
2018-11-03T15:47:15.839Z,68.83
2018-11-03T15:49:42.786Z,68.34
2018-11-03T15:52:09.780Z,68.33
2018-11-03T15:54:36.686Z,68.24
2018-11-03T15:57:04.363Z,69.53
2018-11-03T15:59:33.246Z,69.34
2018-11-03T16:02:00.175Z,69.17
2018-11-03T16:04:27.128Z,69.97
2018-11-03T16:06:55.395Z,70.34
2018-11-03T16:09:24.328Z,70.35
2018-11-03T16:11:51.272Z,71.12
2018-11-03T16:14:18.192Z,71.57
2018-11-03T16:16:45.138Z,71.15
2018-11-03T16:19:12.253Z,72.94
2018-11-03T16:21:43.939Z,72.19
2018-11-03T16:24:10.929Z,72.83
2018-11-03T16:26:37.831Z,72.60
2018-11-03T16:29:04.783Z,71.40
2018-11-03T16:31:32.759Z,71.89
2018-11-03T16:34:00.712Z,71.74
2018-11-03T16:36:27.663Z,72.26
2018-11-03T16:38:56.568Z,72.35
2018-11-03T16:41:25.567Z,72.68
2018-11-03T16:43:52.475Z,74.36
2018-11-03T16:46:19.422Z,73.21
2018-11-03T16:48:46.547Z,72.88
2018-11-03T16:51:14.806Z,72.78
2018-11-03T16:53:43.776Z,72.72
2018-11-03T16:56:10.691Z,73.98
2018-11-03T16:58:37.726Z,73.75
2018-11-03T17:01:08.368Z,73.38
2018-11-03T17:03:35.278Z,74.22
2018-11-03T17:06:02.171Z,73.49
2018-11-03T17:08:29.182Z,73.58
2018-11-03T17:10:58.171Z,73.63
2018-11-03T17:13:25.038Z,73.66
2018-11-03T17:15:52.033Z,73.28
2018-11-03T17:18:18.931Z,73.76
2018-11-03T17:20:45.871Z,75.51
2018-11-03T17:23:12.894Z,75.04
2018-11-03T17:25:40.083Z,75.43
2018-11-03T17:28:07.012Z,75.03
2018-11-03T17:30:33.962Z,74.48
2018-11-03T17:33:04.203Z,75.07
2018-11-03T17:35:34.814Z,75.72
2018-11-03T17:38:01.767Z,75.97
2018-11-03T17:40:28.694Z,75.52
2018-11-03T17:42:56.688Z,75.03
2018-11-03T17:45:23.663Z,75.67
2018-11-03T17:47:50.567Z,75.67
2018-11-03T17:50:17.500Z,75.08
2018-11-03T17:52:44.479Z,76.05
2018-11-03T17:55:11.470Z,75.46
2018-11-03T17:57:38.479Z,75.65
2018-11-03T18:00:09.430Z,76.40
2018-11-03T18:02:36.235Z,75.31
2018-11-03T18:05:03.559Z,76.54
2018-11-03T18:07:30.529Z,76.33
2018-11-03T18:09:57.463Z,75.93
2018-11-03T18:12:24.407Z,75.32
2018-11-03T18:14:52.277Z,75.63
2018-11-03T18:17:19.218Z,75.79
2018-11-03T18:19:47.345Z,77.05
2018-11-03T18:22:14.281Z,77.10
2018-11-03T18:24:41.307Z,76.59
2018-11-03T18:27:08.404Z,76.01
2018-11-03T18:29:35.347Z,75.92
2018-11-03T18:32:03.794Z,75.02
2018-11-03T18:34:30.857Z,75.42
2018-11-03T18:36:57.847Z,75.30
2018-11-03T18:39:26.888Z,75.21
2018-11-03T18:41:54.882Z,75.59
2018-11-03T18:44:23.918Z,74.73
2018-11-03T18:46:51.951Z,73.92
2018-11-03T18:49:19.002Z,74.03
2018-11-03T18:51:48.056Z,75.36
2018-11-03T18:54:15.008Z,75.06
2018-11-03T18:56:43.064Z,75.63
2018-11-03T18:59:12.019Z,74.85
2018-11-03T19:01:39.088Z,76.14
2018-11-03T19:04:09.386Z,75.75
2018-11-03T19:06:36.351Z,76.55
2018-11-03T19:09:06.004Z,76.73
2018-11-03T19:11:33.081Z,77.08
2018-11-03T19:14:00.083Z,77.44
2018-11-03T19:16:27.035Z,77.57
2018-11-03T19:18:53.989Z,76.61
2018-11-03T19:21:20.943Z,76.51
2018-11-03T19:23:48.000Z,78.17
2018-11-03T19:26:14.936Z,78.42
2018-11-03T19:28:41.983Z,78.03
2018-11-03T19:31:08.896Z,78.09
2018-11-03T19:33:36.184Z,78.12
2018-11-03T19:36:03.168Z,77.84
2018-11-03T19:38:30.170Z,78.35
2018-11-03T19:40:57.158Z,77.90
2018-11-03T19:43:24.089Z,78.40
2018-11-03T19:45:53.091Z,77.85
2018-11-03T19:48:20.187Z,79.11
2018-11-03T19:50:47.226Z,80.07
2018-11-03T19:53:14.315Z,80.03
2018-11-03T19:55:41.395Z,81.46
2018-11-03T19:58:09.379Z,81.17
2018-11-03T20:00:36.471Z,81.51
2018-11-03T20:03:03.540Z,81.53
2018-11-03T20:05:30.475Z,81.47
2018-11-03T20:07:57.455Z,81.17
2018-11-03T20:10:24.462Z,81.20
2018-11-03T20:12:51.343Z,80.85
2018-11-03T20:15:18.303Z,81.03
2018-11-03T20:17:45.223Z,80.73
2018-11-03T20:20:13.067Z,80.80
2018-11-03T20:22:40.053Z,81.08
2018-11-03T20:25:11.544Z,80.96
2018-11-03T20:27:38.468Z,81.32
2018-11-03T20:30:07.843Z,81.68
2018-11-03T20:32:34.850Z,81.18
2018-11-03T20:35:01.775Z,81.28
2018-11-03T20:37:28.683Z,81.28
2018-11-03T20:39:55.674Z,81.82
2018-11-03T20:42:22.630Z,81.94
2018-11-03T20:44:49.533Z,81.10
2018-11-03T20:47:16.536Z,81.01
2018-11-03T20:49:43.531Z,81.53
2018-11-03T20:52:10.533Z,80.60
2018-11-03T20:54:37.480Z,79.49
2018-11-03T20:57:04.491Z,80.43
2018-11-03T20:59:32.470Z,80.82
2018-11-03T21:01:59.624Z,80.54
2018-11-03T21:04:26.531Z,80.97
2018-11-03T21:06:53.480Z,80.85
2018-11-03T21:09:20.447Z,80.29
2018-11-03T21:11:49.404Z,80.38
2018-11-03T21:14:16.347Z,80.24
2018-11-03T21:19:16.475Z,79.12
2018-11-03T21:21:43.455Z,79.85
2018-11-03T21:24:10.737Z,80.70
2018-11-03T21:26:37.651Z,80.57
2018-11-03T21:29:05.120Z,81.02
2018-11-03T21:31:32.081Z,80.25
2018-11-03T21:34:00.115Z,79.86
2018-11-03T21:36:27.021Z,79.43
2018-11-03T21:38:55.068Z,80.18
2018-11-03T21:41:22.051Z,80.67
2018-11-03T21:43:48.963Z,81.17
2018-11-03T21:46:15.972Z,81.21
2018-11-03T21:48:43.774Z,80.78
2018-11-03T21:51:10.727Z,81.39
2018-11-03T21:53:38.592Z,80.83
2018-11-03T21:56:07.949Z,80.83
2018-11-03T21:58:34.715Z,79.78
2018-11-03T22:01:02.595Z,80.29
2018-11-03T22:03:30.455Z,79.60
2018-11-03T22:05:57.419Z,80.23
2018-11-03T22:08:24.349Z,80.18
2018-11-03T22:10:51.303Z,80.47
2018-11-03T22:13:18.239Z,80.85
2018-11-03T22:15:45.201Z,80.92
2018-11-03T22:18:12.163Z,81.55
2018-11-03T22:20:39.129Z,82.03
2018-11-03T22:23:07.043Z,81.71
2018-11-03T22:25:34.000Z,81.86
2018-11-03T22:28:01.007Z,81.58
2018-11-03T22:30:27.894Z,81.94
2018-11-03T22:32:54.835Z,81.70
2018-11-03T22:35:21.784Z,81.94
2018-11-03T22:37:48.739Z,81.87
2018-11-03T22:40:15.690Z,82.20
2018-11-03T22:42:43.735Z,81.47
2018-11-03T22:45:10.692Z,82.66
2018-11-03T22:47:37.676Z,82.06
2018-11-03T22:50:04.696Z,82.77
2018-11-03T22:52:31.636Z,81.74
2018-11-03T22:54:58.616Z,81.95
2018-11-03T22:57:25.502Z,82.25
2018-11-03T22:59:52.456Z,81.53
2018-11-03T23:02:19.390Z,81.73
2018-11-03T23:04:46.319Z,81.00
2018-11-03T23:07:13.279Z,82.08
2018-11-03T23:09:40.227Z,81.83
2018-11-03T23:12:07.205Z,81.38
2018-11-03T23:14:35.262Z,81.20
2018-11-03T23:17:02.197Z,82.41
2018-11-03T23:19:30.054Z,82.35
2018-11-03T23:21:57.010Z,81.99
2018-11-03T23:24:23.932Z,83.35
2018-11-03T23:26:51.810Z,82.69
2018-11-03T23:29:19.721Z,82.68
2018-11-03T23:31:48.670Z,83.28
2018-11-03T23:34:15.618Z,82.87
2018-11-03T23:36:42.556Z,81.77
2018-11-03T23:39:10.615Z,81.84
2018-11-03T23:41:37.780Z,82.03
2018-11-03T23:44:04.797Z,80.74
2018-11-03T23:46:31.655Z,80.12
2018-11-03T23:48:59.590Z,80.08
2018-11-03T23:51:26.471Z,80.80
2018-11-03T23:53:55.383Z,81.07
2018-11-03T23:56:22.326Z,80.48
2018-11-03T23:58:49.244Z,80.15
